Butterworth, RMAF Butterworth (WMKB)

NameRMAF Butterworth
CityButterworth
CountryMalaysia
ICAOWMKB
IATABWH
Altitude1 m
CoordinatesGoogle Map
Live Air TrafficLiveATC.net
METARWMKB 151200Z 09003KT 060V130 8000 FEW024 SCT140 BKN280 25/24 Q1011 RERA NOSIG
2018-10-15 12:00:00 Wind: East (90°) 1.54 m/s - Visibility: 8000 m - Temperature: 25 °C - Dew point: 24 °C - Humidity: 94.2% - Pressure: 1011 hPa
Statistics

The table below shows the detailed information of all flights to/from Butterworth, RMAF Butterworth (WMKB).